Data Viewer
| City | State | Eastern Time | Source | Daily Temp Max | Daily Temp Min | Daily Dew Point Max | Daily Dew Point Min | Daily RH Max | Daily Min RH | Daily BP Max | Daily BP Min | Daily Precip | Daily Wind Max | Daily Wind Max Dir |
|---|---|---|---|---|---|---|---|---|---|---|---|---|---|---|
| Stewartsville | NJ | 2026-04-03 | SafetyNet | 65 | 39 | 30.40 | 30.12 | 0.01 | 15 | |||||
| Stewartsville | NJ | 2026-04-19 | SafetyNet | 50 | 36 | 30.10 | 29.76 | 0.30 | 21 | |||||
| Stewartsville | NJ | 2026-05-02 | SafetyNet | 60 | 44 | 29.93 | 29.83 | 0.06 | 13 | |||||
| Stewartsville | NJ | 2026-05-01 | SafetyNet | 64 | 38 | 29.95 | 29.83 | 0.00 | 15 | |||||
| Stewartsville | NJ | 2026-04-30 | SafetyNet | 61 | 46 | 29.88 | 29.74 | 0.16 | 17 | |||||
| Stewartsville | NJ | 2026-04-29 | SafetyNet | 65 | 46 | 30.06 | 29.80 | 0.60 | 19 | |||||
| Stewartsville | NJ | 2026-04-28 | SafetyNet | 62 | 38 | 30.24 | 30.03 | 0.00 | 12 | |||||
| Stewartsville | NJ | 2026-04-27 | SafetyNet | 71 | 36 | 30.25 | 30.19 | 0.00 | 16 | |||||
| Stewartsville | NJ | 2026-04-26 | SafetyNet | 62 | 40 | 30.20 | 30.02 | 0.02 | 12 | |||||
| Stewartsville | NJ | 2026-04-25 | SafetyNet | 50 | 40 | 30.05 | 29.91 | 1.13 | 19 | |||||
| Stewartsville | NJ | 2026-04-24 | SafetyNet | 76 | 46 | 29.91 | 29.75 | 0.00 | 17 | |||||
| Stewartsville | NJ | 2026-04-23 | SafetyNet | 76 | 40 | 29.99 | 29.83 | 0.00 | 21 | |||||
| Stewartsville | NJ | 2026-04-22 | SafetyNet | 60 | 42 | 30.21 | 29.95 | 0.05 | 17 | |||||
| Stewartsville | NJ | 2026-04-21 | SafetyNet | 55 | 25 | 30.42 | 30.18 | 0.00 | 15 | |||||
| Stewartsville | NJ | 2026-04-20 | SafetyNet | 51 | 29 | 30.34 | 30.08 | 0.00 | 21 | |||||
| Stewartsville | NJ | 2026-04-18 | SafetyNet | 74 | 50 | 30.06 | 29.90 | 0.00 | 19 | |||||
| Stewartsville | NJ | 2026-04-04 | SafetyNet | 77 | 41 | 30.19 | 30.11 | 0.00 | 23 | |||||
| Stewartsville | NJ | 2026-04-17 | SafetyNet | 80 | 61 | 29.99 | 29.76 | 0.00 | 19 | |||||
| Stewartsville | NJ | 2026-04-16 | SafetyNet | 89 | 62 | 29.94 | 29.73 | 0.00 | 25 | |||||
| Stewartsville | NJ | 2026-04-15 | SafetyNet | 87 | 59 | 29.98 | 29.85 | 0.00 | 21 | |||||
| Stewartsville | NJ | 2026-04-14 | SafetyNet | 85 | 56 | 30.03 | 29.84 | 0.00 | 23 | |||||
| Stewartsville | NJ | 2026-04-13 | SafetyNet | 80 | 46 | 30.27 | 29.94 | 0.00 | 26 | |||||
| Stewartsville | NJ | 2026-04-12 | SafetyNet | 64 | 33 | 30.51 | 30.27 | 0.00 | 24 | |||||
| Stewartsville | NJ | 2026-04-11 | SafetyNet | 62 | 46 | 30.39 | 30.09 | 0.00 | 21 | |||||
| Stewartsville | NJ | 2026-04-10 | SafetyNet | 71 | 36 | 30.42 | 30.10 | 0.00 | 17 | |||||
| Stewartsville | NJ | 2026-04-09 | SafetyNet | 59 | 26 | 30.61 | 30.40 | 0.00 | 18 | |||||
| Stewartsville | NJ | 2026-04-08 | SafetyNet | 52 | 25 | 30.61 | 30.50 | 0.00 | 18 | |||||
| Stewartsville | NJ | 2026-04-07 | SafetyNet | 51 | 30 | 30.51 | 30.06 | 0.00 | 32 | |||||
| Stewartsville | NJ | 2026-04-06 | SafetyNet | 55 | 38 | 30.09 | 29.94 | 0.00 | 38 | |||||
| Stewartsville | NJ | 2026-04-05 | SafetyNet | 57 | 41 | 30.12 | 29.77 | 0.37 | 26 | |||||
| Stewartsville | NJ | 2026-05-03 | SafetyNet | 60 | 42 | 29.94 | 29.85 | 0.00 | 28 |
data collection created in 0.011856079101562 (queried in 0.004528) rendered in: 6.6995620727539E-5

